sensor_id;sensor_type;location;lat;lon;timestamp;temperature;humidity
30288;DHT22;17103;48.316;11.558;2024-01-27T00:01:12;9.70;45.30
30288;DHT22;17103;48.316;11.558;2024-01-27T00:03:38;9.60;45.90
30288;DHT22;17103;48.316;11.558;2024-01-27T00:06:03;9.60;46.50
30288;DHT22;17103;48.316;11.558;2024-01-27T00:08:29;9.60;47.00
30288;DHT22;17103;48.316;11.558;2024-01-27T00:10:54;9.60;46.90
30288;DHT22;17103;48.316;11.558;2024-01-27T00:13:20;9.60;46.60
30288;DHT22;17103;48.316;11.558;2024-01-27T00:15:46;9.60;46.10
30288;DHT22;17103;48.316;11.558;2024-01-27T00:18:11;9.60;46.00
30288;DHT22;17103;48.316;11.558;2024-01-27T00:20:37;9.60;45.50
30288;DHT22;17103;48.316;11.558;2024-01-27T00:23:03;9.50;45.70
30288;DHT22;17103;48.316;11.558;2024-01-27T00:25:29;9.40;45.90
30288;DHT22;17103;48.316;11.558;2024-01-27T00:27:54;9.40;46.20
30288;DHT22;17103;48.316;11.558;2024-01-27T00:30:20;9.40;45.90
30288;DHT22;17103;48.316;11.558;2024-01-27T00:32:45;9.40;45.90
30288;DHT22;17103;48.316;11.558;2024-01-27T00:35:11;9.40;46.00
30288;DHT22;17103;48.316;11.558;2024-01-27T00:37:40;9.40;46.00
30288;DHT22;17103;48.316;11.558;2024-01-27T00:40:09;9.30;45.80
30288;DHT22;17103;48.316;11.558;2024-01-27T00:42:35;9.30;46.10
30288;DHT22;17103;48.316;11.558;2024-01-27T00:45:00;9.30;46.60
30288;DHT22;17103;48.316;11.558;2024-01-27T00:47:26;9.30;46.40
30288;DHT22;17103;48.316;11.558;2024-01-27T00:49:51;9.30;46.60
30288;DHT22;17103;48.316;11.558;2024-01-27T00:52:19;9.30;46.80
30288;DHT22;17103;48.316;11.558;2024-01-27T00:54:44;9.30;46.30
30288;DHT22;17103;48.316;11.558;2024-01-27T00:57:10;9.30;46.10
30288;DHT22;17103;48.316;11.558;2024-01-27T00:59:35;9.30;46.00
30288;DHT22;17103;48.316;11.558;2024-01-27T01:02:01;9.30;46.30
30288;DHT22;17103;48.316;11.558;2024-01-27T01:04:27;9.20;46.40
30288;DHT22;17103;48.316;11.558;2024-01-27T01:06:53;9.20;46.50
30288;DHT22;17103;48.316;11.558;2024-01-27T01:09:18;9.20;46.50
30288;DHT22;17103;48.316;11.558;2024-01-27T01:11:44;9.20;46.30
30288;DHT22;17103;48.316;11.558;2024-01-27T01:14:09;9.20;46.30
30288;DHT22;17103;48.316;11.558;2024-01-27T01:16:35;9.10;45.90
30288;DHT22;17103;48.316;11.558;2024-01-27T01:19:00;9.10;45.90
30288;DHT22;17103;48.316;11.558;2024-01-27T01:21:26;9.10;46.00
30288;DHT22;17103;48.316;11.558;2024-01-27T01:23:52;9.00;45.80
30288;DHT22;17103;48.316;11.558;2024-01-27T01:26:17;8.90;45.80
30288;DHT22;17103;48.316;11.558;2024-01-27T01:28:43;8.90;45.80
30288;DHT22;17103;48.316;11.558;2024-01-27T01:31:09;8.80;45.80
30288;DHT22;17103;48.316;11.558;2024-01-27T01:33:34;8.70;46.00
30288;DHT22;17103;48.316;11.558;2024-01-27T01:36:00;8.70;46.20
30288;DHT22;17103;48.316;11.558;2024-01-27T01:38:25;8.60;46.10
30288;DHT22;17103;48.316;11.558;2024-01-27T01:40:51;8.50;46.10
30288;DHT22;17103;48.316;11.558;2024-01-27T01:43:16;8.50;46.20
30288;DHT22;17103;48.316;11.558;2024-01-27T01:45:42;8.40;46.10
30288;DHT22;17103;48.316;11.558;2024-01-27T01:48:07;8.40;46.30
30288;DHT22;17103;48.316;11.558;2024-01-27T01:50:34;8.30;46.70
30288;DHT22;17103;48.316;11.558;2024-01-27T01:52:59;8.30;47.10
30288;DHT22;17103;48.316;11.558;2024-01-27T01:55:26;8.30;47.30
30288;DHT22;17103;48.316;11.558;2024-01-27T01:57:51;8.40;47.00
30288;DHT22;17103;48.316;11.558;2024-01-27T02:00:17;8.40;46.60
30288;DHT22;17103;48.316;11.558;2024-01-27T02:02:45;8.40;46.30
30288;DHT22;17103;48.316;11.558;2024-01-27T02:05:13;8.30;46.20
30288;DHT22;17103;48.316;11.558;2024-01-27T02:07:39;8.30;46.50
30288;DHT22;17103;48.316;11.558;2024-01-27T02:10:06;8.30;46.40
30288;DHT22;17103;48.316;11.558;2024-01-27T02:12:33;8.20;46.20
30288;DHT22;17103;48.316;11.558;2024-01-27T02:14:58;8.20;45.90
30288;DHT22;17103;48.316;11.558;2024-01-27T02:17:24;8.10;45.90
30288;DHT22;17103;48.316;11.558;2024-01-27T02:19:49;8.10;46.10
30288;DHT22;17103;48.316;11.558;2024-01-27T02:22:15;8.00;46.10
30288;DHT22;17103;48.316;11.558;2024-01-27T02:24:40;7.90;46.10
30288;DHT22;17103;48.316;11.558;2024-01-27T02:27:06;7.90;46.30
30288;DHT22;17103;48.316;11.558;2024-01-27T02:29:31;7.90;46.30
30288;DHT22;17103;48.316;11.558;2024-01-27T02:31:57;7.80;46.40
30288;DHT22;17103;48.316;11.558;2024-01-27T02:34:23;8.00;46.80
30288;DHT22;17103;48.316;11.558;2024-01-27T02:36:48;7.80;46.70
30288;DHT22;17103;48.316;11.558;2024-01-27T02:39:14;7.80;46.50
30288;DHT22;17103;48.316;11.558;2024-01-27T02:41:39;7.70;46.40
30288;DHT22;17103;48.316;11.558;2024-01-27T02:44:05;7.70;46.40
30288;DHT22;17103;48.316;11.558;2024-01-27T02:46:31;7.70;46.40
30288;DHT22;17103;48.316;11.558;2024-01-27T02:48:56;7.70;46.50
30288;DHT22;17103;48.316;11.558;2024-01-27T02:51:22;7.60;46.50
30288;DHT22;17103;48.316;11.558;2024-01-27T02:53:47;7.60;46.70
30288;DHT22;17103;48.316;11.558;2024-01-27T02:56:13;7.60;46.90
30288;DHT22;17103;48.316;11.558;2024-01-27T02:58:40;7.60;46.90
30288;DHT22;17103;48.316;11.558;2024-01-27T03:01:06;7.60;46.90
30288;DHT22;17103;48.316;11.558;2024-01-27T03:03:31;7.70;46.80
30288;DHT22;17103;48.316;11.558;2024-01-27T03:05:57;7.70;47.00
30288;DHT22;17103;48.316;11.558;2024-01-27T03:08:22;7.70;47.00
30288;DHT22;17103;48.316;11.558;2024-01-27T03:10:48;7.70;47.10
30288;DHT22;17103;48.316;11.558;2024-01-27T03:13:13;7.70;47.20
30288;DHT22;17103;48.316;11.558;2024-01-27T03:15:39;7.80;47.60
30288;DHT22;17103;48.316;11.558;2024-01-27T03:18:04;7.90;47.70
30288;DHT22;17103;48.316;11.558;2024-01-27T03:20:30;7.90;47.60
30288;DHT22;17103;48.316;11.558;2024-01-27T03:22:58;8.00;47.60
30288;DHT22;17103;48.316;11.558;2024-01-27T03:25:24;8.10;47.70
30288;DHT22;17103;48.316;11.558;2024-01-27T03:27:54;8.20;47.60
30288;DHT22;17103;48.316;11.558;2024-01-27T03:30:22;8.20;47.30
30288;DHT22;17103;48.316;11.558;2024-01-27T03:32:48;8.30;47.50
30288;DHT22;17103;48.316;11.558;2024-01-27T03:35:13;8.30;47.50
30288;DHT22;17103;48.316;11.558;2024-01-27T03:37:39;8.40;47.60
30288;DHT22;17103;48.316;11.558;2024-01-27T03:40:05;9.80;48.50
30288;DHT22;17103;48.316;11.558;2024-01-27T03:42:30;8.50;47.30
30288;DHT22;17103;48.316;11.558;2024-01-27T03:44:56;8.60;47.20
30288;DHT22;17103;48.316;11.558;2024-01-27T03:47:21;8.70;47.10
30288;DHT22;17103;48.316;11.558;2024-01-27T03:49:48;8.70;47.30
30288;DHT22;17103;48.316;11.558;2024-01-27T03:52:14;8.70;47.50
30288;DHT22;17103;48.316;11.558;2024-01-27T03:54:39;8.80;47.60
30288;DHT22;17103;48.316;11.558;2024-01-27T03:57:05;8.90;47.70
30288;DHT22;17103;48.316;11.558;2024-01-27T03:59:30;9.00;47.60
30288;DHT22;17103;48.316;11.558;2024-01-27T04:01:56;9.10;47.60
30288;DHT22;17103;48.316;11.558;2024-01-27T04:04:21;9.20;47.50
30288;DHT22;17103;48.316;11.558;2024-01-27T04:06:47;9.20;47.40
30288;DHT22;17103;48.316;11.558;2024-01-27T04:09:12;9.30;47.00
30288;DHT22;17103;48.316;11.558;2024-01-27T04:11:38;9.30;46.30
30288;DHT22;17103;48.316;11.558;2024-01-27T04:14:05;9.30;46.10
30288;DHT22;17103;48.316;11.558;2024-01-27T04:16:31;9.30;46.00
30288;DHT22;17103;48.316;11.558;2024-01-27T04:18:57;9.30;46.10
30288;DHT22;17103;48.316;11.558;2024-01-27T04:21:23;9.30;45.90
30288;DHT22;17103;48.316;11.558;2024-01-27T04:23:48;9.30;46.00
30288;DHT22;17103;48.316;11.558;2024-01-27T04:26:14;9.30;46.10
30288;DHT22;17103;48.316;11.558;2024-01-27T04:28:39;9.40;46.30
30288;DHT22;17103;48.316;11.558;2024-01-27T04:31:05;9.40;46.40
30288;DHT22;17103;48.316;11.558;2024-01-27T04:33:30;9.50;46.50
30288;DHT22;17103;48.316;11.558;2024-01-27T04:35:56;9.50;46.60
30288;DHT22;17103;48.316;11.558;2024-01-27T04:38:21;9.50;46.30
30288;DHT22;17103;48.316;11.558;2024-01-27T04:40:48;9.60;45.90
30288;DHT22;17103;48.316;11.558;2024-01-27T04:43:17;9.50;45.20
30288;DHT22;17103;48.316;11.558;2024-01-27T04:45:43;9.50;44.50
30288;DHT22;17103;48.316;11.558;2024-01-27T04:48:10;9.50;44.50
30288;DHT22;17103;48.316;11.558;2024-01-27T04:50:35;9.40;44.30
30288;DHT22;17103;48.316;11.558;2024-01-27T04:53:01;9.30;44.40
30288;DHT22;17103;48.316;11.558;2024-01-27T04:55:27;9.20;44.20
30288;DHT22;17103;48.316;11.558;2024-01-27T04:57:52;9.10;44.20
30288;DHT22;17103;48.316;11.558;2024-01-27T05:00:18;9.10;44.40
30288;DHT22;17103;48.316;11.558;2024-01-27T05:02:44;9.00;44.70
30288;DHT22;17103;48.316;11.558;2024-01-27T05:05:11;8.90;45.10
30288;DHT22;17103;48.316;11.558;2024-01-27T05:07:40;8.90;45.50
30288;DHT22;17103;48.316;11.558;2024-01-27T05:10:06;8.90;45.70
30288;DHT22;17103;48.316;11.558;2024-01-27T05:12:31;8.90;45.50
30288;DHT22;17103;48.316;11.558;2024-01-27T05:14:57;9.00;45.40
30288;DHT22;17103;48.316;11.558;2024-01-27T05:17:23;9.00;45.30
30288;DHT22;17103;48.316;11.558;2024-01-27T05:19:49;9.00;45.00
30288;DHT22;17103;48.316;11.558;2024-01-27T05:22:15;9.00;44.60
30288;DHT22;17103;48.316;11.558;2024-01-27T05:24:40;8.90;44.20
30288;DHT22;17103;48.316;11.558;2024-01-27T05:27:06;8.80;43.80
30288;DHT22;17103;48.316;11.558;2024-01-27T05:29:31;8.80;43.70
30288;DHT22;17103;48.316;11.558;2024-01-27T05:31:57;8.60;43.60
30288;DHT22;17103;48.316;11.558;2024-01-27T05:34:22;8.50;43.70
30288;DHT22;17103;48.316;11.558;2024-01-27T05:36:48;8.30;43.80
30288;DHT22;17103;48.316;11.558;2024-01-27T05:39:14;8.20;44.10
30288;DHT22;17103;48.316;11.558;2024-01-27T05:41:39;8.10;44.40
30288;DHT22;17103;48.316;11.558;2024-01-27T05:44:05;8.00;44.70
30288;DHT22;17103;48.316;11.558;2024-01-27T05:46:31;7.90;44.80
30288;DHT22;17103;48.316;11.558;2024-01-27T05:48:56;7.90;45.00
30288;DHT22;17103;48.316;11.558;2024-01-27T05:51:26;7.80;45.00
30288;DHT22;17103;48.316;11.558;2024-01-27T05:53:52;7.80;45.10
30288;DHT22;17103;48.316;11.558;2024-01-27T05:56:17;7.80;45.30
30288;DHT22;17103;48.316;11.558;2024-01-27T05:58:46;7.80;45.40
30288;DHT22;17103;48.316;11.558;2024-01-27T06:01:11;7.70;45.40
30288;DHT22;17103;48.316;11.558;2024-01-27T06:03:37;7.70;45.40
30288;DHT22;17103;48.316;11.558;2024-01-27T06:06:03;7.70;45.60
30288;DHT22;17103;48.316;11.558;2024-01-27T06:08:29;7.70;45.60
30288;DHT22;17103;48.316;11.558;2024-01-27T06:10:54;7.60;45.40
30288;DHT22;17103;48.316;11.558;2024-01-27T06:13:20;7.60;45.60
30288;DHT22;17103;48.316;11.558;2024-01-27T06:15:45;7.60;45.80
30288;DHT22;17103;48.316;11.558;2024-01-27T06:18:11;7.70;46.30
30288;DHT22;17103;48.316;11.558;2024-01-27T06:20:36;7.70;46.30
30288;DHT22;17103;48.316;11.558;2024-01-27T06:23:02;7.70;46.30
30288;DHT22;17103;48.316;11.558;2024-01-27T06:25:27;7.80;46.60
30288;DHT22;17103;48.316;11.558;2024-01-27T06:27:53;7.80;46.70
30288;DHT22;17103;48.316;11.558;2024-01-27T06:30:18;7.90;46.90
30288;DHT22;17103;48.316;11.558;2024-01-27T06:32:44;8.10;47.30
30288;DHT22;17103;48.316;11.558;2024-01-27T06:35:10;8.20;47.40
30288;DHT22;17103;48.316;11.558;2024-01-27T06:37:35;8.30;47.50
30288;DHT22;17103;48.316;11.558;2024-01-27T06:40:01;8.40;47.50
30288;DHT22;17103;48.316;11.558;2024-01-27T06:42:27;8.50;47.40
30288;DHT22;17103;48.316;11.558;2024-01-27T06:44:53;8.70;47.10
30288;DHT22;17103;48.316;11.558;2024-01-27T06:47:18;9.40;47.40
30288;DHT22;17103;48.316;11.558;2024-01-27T06:49:44;8.90;46.80
30288;DHT22;17103;48.316;11.558;2024-01-27T06:52:09;9.00;46.80
30288;DHT22;17103;48.316;11.558;2024-01-27T06:54:36;9.00;46.80
30288;DHT22;17103;48.316;11.558;2024-01-27T06:57:06;9.10;46.50
30288;DHT22;17103;48.316;11.558;2024-01-27T06:59:32;9.10;46.20
30288;DHT22;17103;48.316;11.558;2024-01-27T07:01:57;9.10;46.00
30288;DHT22;17103;48.316;11.558;2024-01-27T07:04:23;9.10;45.70
30288;DHT22;17103;48.316;11.558;2024-01-27T07:06:48;9.70;46.00
30288;DHT22;17103;48.316;11.558;2024-01-27T07:09:14;9.00;45.30
30288;DHT22;17103;48.316;11.558;2024-01-27T07:11:39;8.90;45.10
30288;DHT22;17103;48.316;11.558;2024-01-27T07:14:05;8.90;44.80
30288;DHT22;17103;48.316;11.558;2024-01-27T07:16:32;10.20;44.50
30288;DHT22;17103;48.316;11.558;2024-01-27T07:18:58;8.70;43.70
30288;DHT22;17103;48.316;11.558;2024-01-27T07:21:24;8.50;43.30
30288;DHT22;17103;48.316;11.558;2024-01-27T07:23:50;8.40;43.40
30288;DHT22;17103;48.316;11.558;2024-01-27T07:26:16;8.20;43.40
30288;DHT22;17103;48.316;11.558;2024-01-27T07:28:42;8.00;43.50
30288;DHT22;17103;48.316;11.558;2024-01-27T07:31:07;7.80;43.50
30288;DHT22;17103;48.316;11.558;2024-01-27T07:33:33;7.70;43.70
30288;DHT22;17103;48.316;11.558;2024-01-27T07:35:58;7.50;43.90
30288;DHT22;17103;48.316;11.558;2024-01-27T07:38:24;7.40;44.10
30288;DHT22;17103;48.316;11.558;2024-01-27T07:40:49;7.30;44.40
30288;DHT22;17103;48.316;11.558;2024-01-27T07:43:15;7.20;44.60
30288;DHT22;17103;48.316;11.558;2024-01-27T07:45:41;7.00;44.70
30288;DHT22;17103;48.316;11.558;2024-01-27T07:48:06;6.90;44.90
30288;DHT22;17103;48.316;11.558;2024-01-27T07:50:32;6.80;45.00
30288;DHT22;17103;48.316;11.558;2024-01-27T07:52:59;6.80;45.40
30288;DHT22;17103;48.316;11.558;2024-01-27T07:55:24;6.30;45.30
30288;DHT22;17103;48.316;11.558;2024-01-27T07:57:50;6.60;45.70
30288;DHT22;17103;48.316;11.558;2024-01-27T08:00:15;6.60;45.90
30288;DHT22;17103;48.316;11.558;2024-01-27T08:02:41;6.50;45.90
30288;DHT22;17103;48.316;11.558;2024-01-27T08:05:13;6.50;46.10
30288;DHT22;17103;48.316;11.558;2024-01-27T08:07:48;6.40;46.20
30288;DHT22;17103;48.316;11.558;2024-01-27T08:10:15;6.50;46.40
30288;DHT22;17103;48.316;11.558;2024-01-27T08:12:40;6.40;46.40
30288;DHT22;17103;48.316;11.558;2024-01-27T08:15:06;6.50;46.70
30288;DHT22;17103;48.316;11.558;2024-01-27T08:17:32;6.40;46.70
30288;DHT22;17103;48.316;11.558;2024-01-27T08:19:58;6.50;46.90
30288;DHT22;17103;48.316;11.558;2024-01-27T08:22:24;6.70;47.10
30288;DHT22;17103;48.316;11.558;2024-01-27T08:24:50;6.40;46.90
30288;DHT22;17103;48.316;11.558;2024-01-27T08:27:15;6.40;47.00
30288;DHT22;17103;48.316;11.558;2024-01-27T08:29:41;6.50;47.90
30288;DHT22;17103;48.316;11.558;2024-01-27T08:32:07;6.50;47.40
30288;DHT22;17103;48.316;11.558;2024-01-27T08:34:32;6.50;47.40
30288;DHT22;17103;48.316;11.558;2024-01-27T08:37:00;6.50;47.40
30288;DHT22;17103;48.316;11.558;2024-01-27T08:39:25;6.50;47.60
30288;DHT22;17103;48.316;11.558;2024-01-27T08:41:51;6.50;47.80
30288;DHT22;17103;48.316;11.558;2024-01-27T08:44:16;6.50;48.10
30288;DHT22;17103;48.316;11.558;2024-01-27T08:46:42;6.50;48.20
30288;DHT22;17103;48.316;11.558;2024-01-27T08:49:07;6.50;48.20
30288;DHT22;17103;48.316;11.558;2024-01-27T08:51:33;6.50;48.50
30288;DHT22;17103;48.316;11.558;2024-01-27T08:53:59;6.50;48.50
30288;DHT22;17103;48.316;11.558;2024-01-27T08:56:24;6.50;48.60
30288;DHT22;17103;48.316;11.558;2024-01-27T08:58:50;6.50;48.90
30288;DHT22;17103;48.316;11.558;2024-01-27T09:01:16;6.50;48.80
30288;DHT22;17103;48.316;11.558;2024-01-27T09:03:42;6.50;48.50
30288;DHT22;17103;48.316;11.558;2024-01-27T09:06:07;6.50;48.70
30288;DHT22;17103;48.316;11.558;2024-01-27T09:08:33;6.60;49.00
30288;DHT22;17103;48.316;11.558;2024-01-27T09:10:59;6.60;49.10
30288;DHT22;17103;48.316;11.558;2024-01-27T09:13:26;6.60;48.70
30288;DHT22;17103;48.316;11.558;2024-01-27T09:15:52;6.70;49.10
30288;DHT22;17103;48.316;11.558;2024-01-27T09:18:17;6.70;49.10
30288;DHT22;17103;48.316;11.558;2024-01-27T09:20:43;6.80;49.30
30288;DHT22;17103;48.316;11.558;2024-01-27T09:23:08;6.80;49.10
30288;DHT22;17103;48.316;11.558;2024-01-27T09:25:34;6.90;49.00
30288;DHT22;17103;48.316;11.558;2024-01-27T09:27:59;6.90;49.00
30288;DHT22;17103;48.316;11.558;2024-01-27T09:30:28;7.00;49.10
30288;DHT22;17103;48.316;11.558;2024-01-27T09:32:54;7.10;49.20
30288;DHT22;17103;48.316;11.558;2024-01-27T09:35:20;7.20;49.30
30288;DHT22;17103;48.316;11.558;2024-01-27T09:37:46;7.30;49.30
30288;DHT22;17103;48.316;11.558;2024-01-27T09:40:12;7.30;49.10
30288;DHT22;17103;48.316;11.558;2024-01-27T09:42:38;7.40;49.00
30288;DHT22;17103;48.316;11.558;2024-01-27T09:45:06;7.50;49.00
30288;DHT22;17103;48.316;11.558;2024-01-27T09:47:33;7.50;48.90
30288;DHT22;17103;48.316;11.558;2024-01-27T09:50:00;7.60;48.80
30288;DHT22;17103;48.316;11.558;2024-01-27T09:52:25;7.60;48.70
30288;DHT22;17103;48.316;11.558;2024-01-27T09:54:51;7.70;48.60
30288;DHT22;17103;48.316;11.558;2024-01-27T09:57:16;7.70;48.50
30288;DHT22;17103;48.316;11.558;2024-01-27T09:59:44;7.80;48.50
30288;DHT22;17103;48.316;11.558;2024-01-27T10:02:11;7.90;48.60
30288;DHT22;17103;48.316;11.558;2024-01-27T10:04:38;7.90;48.60
30288;DHT22;17103;48.316;11.558;2024-01-27T10:07:05;8.00;48.40
30288;DHT22;17103;48.316;11.558;2024-01-27T10:09:30;8.10;47.90
30288;DHT22;17103;48.316;11.558;2024-01-27T10:11:56;8.10;47.90
30288;DHT22;17103;48.316;11.558;2024-01-27T10:14:22;8.20;47.60
30288;DHT22;17103;48.316;11.558;2024-01-27T10:16:48;8.20;47.70
30288;DHT22;17103;48.316;11.558;2024-01-27T10:19:17;8.30;47.70
30288;DHT22;17103;48.316;11.558;2024-01-27T10:21:43;8.40;47.80
30288;DHT22;17103;48.316;11.558;2024-01-27T10:24:09;8.40;47.90
30288;DHT22;17103;48.316;11.558;2024-01-27T10:26:35;8.50;47.80
30288;DHT22;17103;48.316;11.558;2024-01-27T10:29:00;8.60;47.90
30288;DHT22;17103;48.316;11.558;2024-01-27T10:31:27;8.60;47.40
30288;DHT22;17103;48.316;11.558;2024-01-27T10:33:54;8.70;47.60
30288;DHT22;17103;48.316;11.558;2024-01-27T10:36:20;8.70;47.70
30288;DHT22;17103;48.316;11.558;2024-01-27T10:38:46;8.80;47.10
30288;DHT22;17103;48.316;11.558;2024-01-27T10:41:11;8.90;47.00
30288;DHT22;17103;48.316;11.558;2024-01-27T10:43:38;10.20;46.10
30288;DHT22;17103;48.316;11.558;2024-01-27T10:46:07;8.90;45.10
30288;DHT22;17103;48.316;11.558;2024-01-27T10:48:36;9.00;44.90
30288;DHT22;17103;48.316;11.558;2024-01-27T10:51:08;9.00;45.60
30288;DHT22;17103;48.316;11.558;2024-01-27T10:53:35;9.10;46.20
30288;DHT22;17103;48.316;11.558;2024-01-27T10:56:05;9.10;45.20
30288;DHT22;17103;48.316;11.558;2024-01-27T10:58:34;9.20;45.20
30288;DHT22;17103;48.316;11.558;2024-01-27T11:01:10;9.20;45.10
30288;DHT22;17103;48.316;11.558;2024-01-27T11:03:40;9.20;45.30
30288;DHT22;17103;48.316;11.558;2024-01-27T11:06:06;9.30;46.40
30288;DHT22;17103;48.316;11.558;2024-01-27T11:08:34;9.40;45.50
30288;DHT22;17103;48.316;11.558;2024-01-27T11:11:03;9.40;45.70
30288;DHT22;17103;48.316;11.558;2024-01-27T11:13:32;9.50;45.80
30288;DHT22;17103;48.316;11.558;2024-01-27T11:15:58;9.50;44.40
30288;DHT22;17103;48.316;11.558;2024-01-27T11:18:27;9.60;44.50
30288;DHT22;17103;48.316;11.558;2024-01-27T11:20:53;9.60;44.40
30288;DHT22;17103;48.316;11.558;2024-01-27T11:23:19;9.60;45.00
30288;DHT22;17103;48.316;11.558;2024-01-27T11:25:44;9.70;45.30
30288;DHT22;17103;48.316;11.558;2024-01-27T11:28:11;9.80;45.40
30288;DHT22;17103;48.316;11.558;2024-01-27T11:30:39;9.80;44.50
30288;DHT22;17103;48.316;11.558;2024-01-27T11:33:05;9.90;44.70
30288;DHT22;17103;48.316;11.558;2024-01-27T11:35:31;9.90;45.10
30288;DHT22;17103;48.316;11.558;2024-01-27T11:37:57;10.00;43.60
30288;DHT22;17103;48.316;11.558;2024-01-27T11:40:22;10.00;42.10
30288;DHT22;17103;48.316;11.558;2024-01-27T11:42:59;10.00;42.40
30288;DHT22;17103;48.316;11.558;2024-01-27T11:45:24;10.10;42.70
30288;DHT22;17103;48.316;11.558;2024-01-27T11:47:50;10.10;43.60
30288;DHT22;17103;48.316;11.558;2024-01-27T11:50:19;10.20;44.40
30288;DHT22;17103;48.316;11.558;2024-01-27T11:52:46;10.30;44.10
30288;DHT22;17103;48.316;11.558;2024-01-27T11:55:11;10.30;43.70
30288;DHT22;17103;48.316;11.558;2024-01-27T11:57:37;10.40;44.00
30288;DHT22;17103;48.316;11.558;2024-01-27T12:00:03;10.50;43.80
30288;DHT22;17103;48.316;11.558;2024-01-27T12:02:31;10.60;43.70
30288;DHT22;17103;48.316;11.558;2024-01-27T12:05:00;10.70;42.70
30288;DHT22;17103;48.316;11.558;2024-01-27T12:07:26;10.70;43.20
30288;DHT22;17103;48.316;11.558;2024-01-27T12:09:51;10.80;43.00
30288;DHT22;17103;48.316;11.558;2024-01-27T12:12:20;10.90;43.20
30288;DHT22;17103;48.316;11.558;2024-01-27T12:14:47;10.90;43.70
30288;DHT22;17103;48.316;11.558;2024-01-27T12:17:13;11.00;43.30
30288;DHT22;17103;48.316;11.558;2024-01-27T12:19:39;11.10;44.00
30288;DHT22;17103;48.316;11.558;2024-01-27T12:22:05;11.20;44.10
30288;DHT22;17103;48.316;11.558;2024-01-27T12:24:43;11.20;42.80
30288;DHT22;17103;48.316;11.558;2024-01-27T12:27:09;11.30;44.60
30288;DHT22;17103;48.316;11.558;2024-01-27T12:29:34;11.40;44.80
30288;DHT22;17103;48.316;11.558;2024-01-27T12:32:00;11.30;45.20
30288;DHT22;17103;48.316;11.558;2024-01-27T12:34:26;11.60;44.10
30288;DHT22;17103;48.316;11.558;2024-01-27T12:36:51;11.70;44.10
30288;DHT22;17103;48.316;11.558;2024-01-27T12:39:17;11.80;43.60
30288;DHT22;17103;48.316;11.558;2024-01-27T12:41:43;11.90;43.80
30288;DHT22;17103;48.316;11.558;2024-01-27T12:44:08;12.00;44.10
30288;DHT22;17103;48.316;11.558;2024-01-27T12:46:37;12.00;44.00
30288;DHT22;17103;48.316;11.558;2024-01-27T12:49:02;12.10;40.80
30288;DHT22;17103;48.316;11.558;2024-01-27T12:51:28;12.10;40.70
30288;DHT22;17103;48.316;11.558;2024-01-27T12:53:54;12.10;40.20
30288;DHT22;17103;48.316;11.558;2024-01-27T12:56:19;12.10;38.80
30288;DHT22;17103;48.316;11.558;2024-01-27T12:58:45;12.10;41.20
30288;DHT22;17103;48.316;11.558;2024-01-27T13:01:11;12.10;40.30
30288;DHT22;17103;48.316;11.558;2024-01-27T13:03:37;12.10;41.40
30288;DHT22;17103;48.316;11.558;2024-01-27T13:06:03;12.20;42.70
30288;DHT22;17103;48.316;11.558;2024-01-27T13:08:29;12.30;43.20
30288;DHT22;17103;48.316;11.558;2024-01-27T13:10:55;12.30;44.40
30288;DHT22;17103;48.316;11.558;2024-01-27T13:13:30;12.50;43.10
30288;DHT22;17103;48.316;11.558;2024-01-27T13:15:56;12.90;43.60
30288;DHT22;17103;48.316;11.558;2024-01-27T13:18:22;12.70;44.50
30288;DHT22;17103;48.316;11.558;2024-01-27T13:20:47;12.80;45.20
30288;DHT22;17103;48.316;11.558;2024-01-27T13:23:13;12.90;43.40
30288;DHT22;17103;48.316;11.558;2024-01-27T13:25:38;13.00;43.50
30288;DHT22;17103;48.316;11.558;2024-01-27T13:28:04;13.20;43.30
30288;DHT22;17103;48.316;11.558;2024-01-27T13:30:32;13.30;43.70
30288;DHT22;17103;48.316;11.558;2024-01-27T13:32:58;13.40;44.20
30288;DHT22;17103;48.316;11.558;2024-01-27T13:35:24;13.50;42.00
30288;DHT22;17103;48.316;11.558;2024-01-27T13:37:50;13.60;43.20
30288;DHT22;17103;48.316;11.558;2024-01-27T13:40:16;13.70;43.90
30288;DHT22;17103;48.316;11.558;2024-01-27T13:42:41;13.80;42.70
30288;DHT22;17103;48.316;11.558;2024-01-27T13:45:07;13.90;43.10
30288;DHT22;17103;48.316;11.558;2024-01-27T13:47:34;13.90;44.50
30288;DHT22;17103;48.316;11.558;2024-01-27T13:49:59;14.10;45.40
30288;DHT22;17103;48.316;11.558;2024-01-27T13:52:25;14.20;46.00
30288;DHT22;17103;48.316;11.558;2024-01-27T13:54:51;14.40;45.70
30288;DHT22;17103;48.316;11.558;2024-01-27T13:57:16;14.60;45.20
30288;DHT22;17103;48.316;11.558;2024-01-27T13:59:42;14.80;44.80
30288;DHT22;17103;48.316;11.558;2024-01-27T14:02:07;14.90;44.90
30288;DHT22;17103;48.316;11.558;2024-01-27T14:04:34;15.00;45.80
30288;DHT22;17103;48.316;11.558;2024-01-27T14:07:00;15.20;46.60
30288;DHT22;17103;48.316;11.558;2024-01-27T14:09:32;15.40;47.30
30288;DHT22;17103;48.316;11.558;2024-01-27T14:11:57;15.60;47.60
30288;DHT22;17103;48.316;11.558;2024-01-27T14:14:23;15.80;48.00
30288;DHT22;17103;48.316;11.558;2024-01-27T14:16:48;16.10;48.40
30288;DHT22;17103;48.316;11.558;2024-01-27T14:19:14;16.40;48.80
30288;DHT22;17103;48.316;11.558;2024-01-27T14:21:39;16.60;49.00
30288;DHT22;17103;48.316;11.558;2024-01-27T14:24:06;16.90;49.10
30288;DHT22;17103;48.316;11.558;2024-01-27T14:26:32;17.10;48.70
30288;DHT22;17103;48.316;11.558;2024-01-27T14:28:58;17.40;48.90
30288;DHT22;17103;48.316;11.558;2024-01-27T14:31:28;17.60;48.60
30288;DHT22;17103;48.316;11.558;2024-01-27T14:33:56;17.70;48.00
30288;DHT22;17103;48.316;11.558;2024-01-27T14:36:21;17.80;48.30
30288;DHT22;17103;48.316;11.558;2024-01-27T14:38:49;18.00;48.40
30288;DHT22;17103;48.316;11.558;2024-01-27T14:41:14;18.20;48.60
30288;DHT22;17103;48.316;11.558;2024-01-27T14:43:40;18.30;48.70
30288;DHT22;17103;48.316;11.558;2024-01-27T14:46:05;18.40;48.70
30288;DHT22;17103;48.316;11.558;2024-01-27T14:48:31;18.60;48.70
30288;DHT22;17103;48.316;11.558;2024-01-27T14:50:57;18.80;48.80
30288;DHT22;17103;48.316;11.558;2024-01-27T14:53:25;19.10;48.80
30288;DHT22;17103;48.316;11.558;2024-01-27T14:55:50;19.10;48.60
30288;DHT22;17103;48.316;11.558;2024-01-27T14:58:16;19.20;48.30
30288;DHT22;17103;48.316;11.558;2024-01-27T15:00:42;19.30;48.00
30288;DHT22;17103;48.316;11.558;2024-01-27T15:03:08;19.50;48.00
30288;DHT22;17103;48.316;11.558;2024-01-27T15:05:34;19.60;47.80
30288;DHT22;17103;48.316;11.558;2024-01-27T15:08:03;19.60;47.50
30288;DHT22;17103;48.316;11.558;2024-01-27T15:10:28;19.70;47.10
30288;DHT22;17103;48.316;11.558;2024-01-27T15:12:54;19.80;46.80
30288;DHT22;17103;48.316;11.558;2024-01-27T15:15:20;19.80;46.60
30288;DHT22;17103;48.316;11.558;2024-01-27T15:17:45;19.80;46.30
30288;DHT22;17103;48.316;11.558;2024-01-27T15:20:11;19.80;45.80